Time;durP1;ratioP1;P1;durP2;ratioP2;P2;SDS_P1;SDS_P2;PMS_P1;PMS_P2;Temp;Humidity;BMP_temperature;BMP_pressure;BME280_temperature;BME280_humidity;BME280_pressure;Samples;Min_cycle;Max_cycle;Signal;HPM_P1;HPM_P2
2022/01/21 00:00:45;;;;;;;20.08;3.22;;;;;;;;;;5114827;27;95010;-74
2022/01/21 00:03:12;;;;;;;26.52;4.90;;;;;;;;;;5115238;27;96976;-74
2022/01/21 00:05:38;;;;;;;20.45;3.55;;;;;;;;;;5114319;27;97258;-75
2022/01/21 00:08:05;;;;;;;19.90;4.00;;;;;;;;;;5115249;27;95388;-73
2022/01/21 00:10:31;;;;;;;21.02;3.55;;;;;;;;;;5117514;27;95565;-74
2022/01/21 00:12:58;;;;;;;19.02;3.55;;;;;;;;;;5114904;27;95250;-74
2022/01/21 00:15:24;;;;;;;16.45;2.92;;;;;;;;;;5115244;27;96786;-74
2022/01/21 00:17:50;;;;;;;24.20;3.45;;;;;;;;;;5114780;27;97265;-73
2022/01/21 00:31:16;;;;;;;16.88;2.95;;;;;;;;;;5093743;27;96833;-73
2022/01/21 00:33:43;;;;;;;17.45;3.20;;;;;;;;;;5097034;27;98692;-74
2022/01/21 00:36:09;;;;;;;20.60;3.45;;;;;;;;;;5106507;27;96928;-74
2022/01/21 00:38:36;;;;;;;30.58;4.32;;;;;;;;;;5114386;27;97712;-75
2022/01/21 00:41:05;;;;;;;16.30;2.83;;;;;;;;;;5093903;27;95410;-74
2022/01/21 00:43:43;;;;;;;15.40;3.22;;;;;;;;;;5112458;27;96684;-73
2022/01/21 00:46:10;;;;;;;16.52;2.85;;;;;;;;;;5114553;27;97263;-75
2022/01/21 00:48:36;;;;;;;21.00;3.03;;;;;;;;;;5114273;27;95333;-74
2022/01/21 00:51:03;;;;;;;22.38;5.03;;;;;;;;;;5114709;27;96804;-73
2022/01/21 00:53:29;;;;;;;21.15;2.95;;;;;;;;;;5114671;27;99213;-74
2022/01/21 00:55:55;;;;;;;22.15;3.78;;;;;;;;;;5117375;27;95352;-75
2022/01/21 00:58:22;;;;;;;28.98;3.25;;;;;;;;;;5113779;27;98420;-74
2022/01/21 01:00:48;;;;;;;21.08;3.83;;;;;;;;;;5096001;27;95429;-74
2022/01/21 01:03:15;;;;;;;22.05;3.33;;;;;;;;;;5114007;27;96690;-74
2022/01/21 01:05:42;;;;;;;26.30;3.38;;;;;;;;;;5096349;27;97431;-75
2022/01/21 01:08:08;;;;;;;17.63;3.63;;;;;;;;;;5115897;27;95875;-74
2022/01/21 01:10:42;;;;;;;28.25;3.40;;;;;;;;;;5096167;27;96810;-76
2022/01/21 01:21:24;;;;;;;19.48;3.42;;;;;;;;;;5117404;27;95602;-76
2022/01/21 01:24:05;;;;;;;19.48;3.47;;;;;;;;;;5117971;27;96739;-76
2022/01/21 01:29:17;;;;;;;14.45;2.50;;;;;;;;;;5117493;27;95187;-76
2022/01/21 01:31:43;;;;;;;18.75;3.08;;;;;;;;;;5117327;27;97144;-76
2022/01/21 01:34:10;;;;;;;14.15;2.22;;;;;;;;;;5117541;27;97328;-76
2022/01/21 01:36:37;;;;;;;19.13;2.80;;;;;;;;;;5118087;27;95484;-77
2022/01/21 01:39:13;;;;;;;14.38;2.92;;;;;;;;;;5120610;27;96764;-76
2022/01/21 01:42:43;;;;;;;20.65;2.72;;;;;;;;;;5116976;27;95398;-75
2022/01/21 01:50:04;;;;;;;19.02;2.75;;;;;;;;;;5117596;27;95188;-74
2022/01/21 01:52:30;;;;;;;19.77;2.65;;;;;;;;;;5116582;27;96694;-74
2022/01/21 01:54:56;;;;;;;21.02;2.30;;;;;;;;;;5117709;27;97254;-74
2022/01/21 01:57:23;;;;;;;15.40;3.15;;;;;;;;;;5116671;27;95314;-74
2022/01/21 01:59:49;;;;;;;21.73;4.18;;;;;;;;;;5117235;27;95606;-75
2022/01/21 02:02:17;;;;;;;11.30;2.40;;;;;;;;;;5119448;27;97579;-75
2022/01/21 02:04:44;;;;;;;20.38;3.00;;;;;;;;;;5117616;27;96694;-75
2022/01/21 02:07:11;;;;;;;15.15;2.70;;;;;;;;;;5116567;27;97256;-74
2022/01/21 02:09:37;;;;;;;26.52;2.88;;;;;;;;;;5099033;27;95485;-74
2022/01/21 02:12:05;;;;;;;15.10;2.55;;;;;;;;;;5116029;27;96866;-75
2022/01/21 02:14:37;;;;;;;10.18;2.15;;;;;;;;;;5098585;27;97265;-76
2022/01/21 02:22:19;;;;;;;12.95;2.30;;;;;;;;;;5116266;27;96042;-75
2022/01/21 02:24:50;;;;;;;21.42;2.60;;;;;;;;;;5120766;27;95080;-76
2022/01/21 02:27:16;;;;;;;17.45;3.30;;;;;;;;;;5115747;27;97761;-74
2022/01/21 02:29:52;;;;;;;16.05;2.75;;;;;;;;;;5116828;27;95185;-74
2022/01/21 02:32:19;;;;;;;14.60;2.80;;;;;;;;;;5116215;27;97103;-74
2022/01/21 02:34:46;;;;;;;25.50;2.80;;;;;;;;;;5098098;27;97295;-74
2022/01/21 02:37:13;;;;;;;13.70;2.63;;;;;;;;;;5116590;27;94946;-74
2022/01/21 02:39:40;;;;;;;17.55;2.58;;;;;;;;;;5117090;27;96821;-74
2022/01/21 02:42:07;;;;;;;10.18;2.58;;;;;;;;;;5115661;27;97268;-73
2022/01/21 02:44:33;;;;;;;25.08;3.72;;;;;;;;;;5116681;27;95099;-74
2022/01/21 02:47:02;;;;;;;20.73;3.67;;;;;;;;;;5120016;27;97316;-74
2022/01/21 02:49:28;;;;;;;26.55;3.15;;;;;;;;;;5115696;27;95429;-74
2022/01/21 02:52:01;;;;;;;19.33;2.90;;;;;;;;;;5116026;27;97176;-74
2022/01/21 02:54:30;;;;;;;19.98;3.45;;;;;;;;;;5115843;27;96760;-73
2022/01/21 02:56:58;;;;;;;21.17;2.45;;;;;;;;;;5116129;27;95337;-73
2022/01/21 02:59:24;;;;;;;16.95;2.63;;;;;;;;;;5116324;27;96872;-74
2022/01/21 03:01:51;;;;;;;18.52;2.70;;;;;;;;;;5114317;27;96007;-73
2022/01/21 03:04:28;;;;;;;18.90;2.60;;;;;;;;;;5116283;27;95182;-74
2022/01/21 03:06:54;;;;;;;11.70;2.13;;;;;;;;;;5116368;27;96985;-73
2022/01/21 03:09:21;;;;;;;18.60;3.22;;;;;;;;;;5118229;27;97778;-73
2022/01/21 03:11:47;;;;;;;15.02;1.92;;;;;;;;;;5115693;27;96119;-74
2022/01/21 03:14:13;;;;;;;13.10;2.35;;;;;;;;;;5097490;27;97347;-76
2022/01/21 03:16:40;;;;;;;18.98;2.67;;;;;;;;;;5115933;27;95320;-76
2022/01/21 03:19:06;;;;;;;11.57;2.17;;;;;;;;;;5116459;27;96750;-73
2022/01/21 03:21:33;;;;;;;15.63;2.70;;;;;;;;;;5115503;27;97900;-75
2022/01/21 03:23:59;;;;;;;10.45;2.10;;;;;;;;;;5115181;27;95369;-75
2022/01/21 03:26:26;;;;;;;13.20;2.70;;;;;;;;;;5115525;27;97160;-76
2022/01/21 03:28:55;;;;;;;15.13;2.10;;;;;;;;;;5116982;27;97379;-74
2022/01/21 03:31:22;;;;;;;15.43;2.58;;;;;;;;;;5119434;27;95104;-76
2022/01/21 03:33:48;;;;;;;15.40;2.55;;;;;;;;;;5116490;27;97305;-74
2022/01/21 03:36:15;;;;;;;17.40;2.50;;;;;;;;;;5116313;27;95371;-76
2022/01/21 03:38:42;;;;;;;12.93;1.67;;;;;;;;;;5115053;27;96181;-75
2022/01/21 03:41:09;;;;;;;11.40;2.05;;;;;;;;;;5095900;27;97825;-74
2022/01/21 03:43:35;;;;;;;19.73;2.70;;;;;;;;;;5115248;27;95287;-76
2022/01/21 03:46:02;;;;;;;9.52;2.05;;;;;;;;;;5116004;27;95866;-74
2022/01/21 03:48:29;;;;;;;16.42;2.15;;;;;;;;;;5115269;27;97221;-75
2022/01/21 03:50:56;;;;;;;15.75;2.25;;;;;;;;;;5118548;27;95308;-75
2022/01/21 03:53:22;;;;;;;12.40;1.80;;;;;;;;;;5114603;27;97477;-75
2022/01/21 03:55:49;;;;;;;13.13;2.38;;;;;;;;;;5115886;27;95166;-74
2022/01/21 03:58:15;;;;;;;12.35;2.10;;;;;;;;;;5114767;27;96866;-76
2022/01/21 04:00:44;;;;;;;13.35;2.10;;;;;;;;;;5114985;27;97305;-75
2022/01/21 04:03:11;;;;;;;17.42;2.20;;;;;;;;;;5114388;27;95314;-75
2022/01/21 04:05:37;;;;;;;17.67;2.15;;;;;;;;;;5115177;27;96924;-76
2022/01/21 04:08:04;;;;;;;17.42;2.30;;;;;;;;;;5115564;27;97954;-75
2022/01/21 04:10:31;;;;;;;15.07;2.28;;;;;;;;;;5115208;27;95332;-75
2022/01/21 04:12:57;;;;;;;17.63;2.38;;;;;;;;;;5117224;27;97191;-75
2022/01/21 04:15:24;;;;;;;10.68;2.40;;;;;;;;;;5114946;27;95304;-76
2022/01/21 04:17:50;;;;;;;19.90;2.72;;;;;;;;;;5115124;27;95940;-75
2022/01/21 04:20:17;;;;;;;22.10;2.65;;;;;;;;;;5114342;27;97512;-75
2022/01/21 04:22:43;;;;;;;18.40;2.40;;;;;;;;;;5115204;27;95144;-75
2022/01/21 04:25:09;;;;;;;16.95;2.22;;;;;;;;;;5115132;27;95671;-74
2022/01/21 04:27:36;;;;;;;13.85;3.03;;;;;;;;;;5095924;27;97651;-76
2022/01/21 04:30:03;;;;;;;12.68;2.00;;;;;;;;;;5115153;27;95378;-76
2022/01/21 04:32:30;;;;;;;12.88;2.45;;;;;;;;;;5115015;27;96787;-75
2022/01/21 04:34:56;;;;;;;16.92;1.90;;;;;;;;;;5117709;27;97477;-76
2022/01/21 04:37:22;;;;;;;9.38;2.10;;;;;;;;;;5114119;27;96751;-75
2022/01/21 04:39:55;;;;;;;11.30;2.03;;;;;;;;;;5113623;27;96976;-73
2022/01/21 04:47:35;;;;;;;17.17;2.30;;;;;;;;;;5114284;27;99363;-74
2022/01/21 04:50:08;;;;;;;16.63;2.67;;;;;;;;;;5115149;27;95352;-75
2022/01/21 04:52:34;;;;;;;12.43;2.13;;;;;;;;;;5114295;27;96858;-74
2022/01/21 04:55:01;;;;;;;10.30;2.20;;;;;;;;;;5114205;27;97280;-74
2022/01/21 04:57:29;;;;;;;12.45;2.03;;;;;;;;;;5095609;27;95375;-74
2022/01/21 04:59:55;;;;;;;9.48;2.28;;;;;;;;;;5093443;27;97286;-73
2022/01/21 05:02:23;;;;;;;9.13;1.65;;;;;;;;;;5092351;27;96906;-73
2022/01/21 05:04:49;;;;;;;13.18;2.13;;;;;;;;;;5093807;27;96814;-74
2022/01/21 05:07:21;;;;;;;13.60;2.40;;;;;;;;;;5093474;27;97622;-74
2022/01/21 05:09:47;;;;;;;12.10;2.23;;;;;;;;;;5093534;27;95192;-75
2022/01/21 05:12:19;;;;;;;20.05;2.40;;;;;;;;;;5092947;27;96751;-74
2022/01/21 05:15:08;;;;;;;12.05;2.30;;;;;;;;;;5093247;27;96808;-73
2022/01/21 05:17:43;;;;;;;13.75;1.70;;;;;;;;;;5091986;27;95652;-76
2022/01/21 05:20:11;;;;;;;16.40;2.20;;;;;;;;;;5096208;27;96242;-77
2022/01/21 05:22:38;;;;;;;11.88;2.33;;;;;;;;;;5093210;27;95574;-74
2022/01/21 05:25:04;;;;;;;7.82;1.60;;;;;;;;;;5091588;27;96854;-75
2022/01/21 05:27:31;;;;;;;10.98;1.60;;;;;;;;;;5086980;27;97523;-77
2022/01/21 05:29:57;;;;;;;5.35;1.80;;;;;;;;;;5092820;27;95357;-76
2022/01/21 05:32:24;;;;;;;12.50;1.92;;;;;;;;;;5091941;27;97168;-75
2022/01/21 05:34:50;;;;;;;7.60;1.80;;;;;;;;;;5091954;27;97589;-75
2022/01/21 05:37:17;;;;;;;11.13;1.80;;;;;;;;;;5090328;27;95376;-74
2022/01/21 05:39:45;;;;;;;17.85;1.98;;;;;;;;;;5086683;27;96713;-75
2022/01/21 05:42:11;;;;;;;15.27;2.40;;;;;;;;;;5075653;27;95384;-76
2022/01/21 05:47:06;;;;;;;10.95;2.15;;;;;;;;;;5093523;27;97599;-75
2022/01/21 05:49:33;;;;;;;11.77;2.20;;;;;;;;;;5092139;27;95417;-76
2022/01/21 05:52:09;;;;;;;15.15;2.28;;;;;;;;;;5092412;27;97232;-75
2022/01/21 05:54:36;;;;;;;10.05;1.92;;;;;;;;;;5092681;27;97285;-77
2022/01/21 05:57:05;;;;;;;13.57;2.17;;;;;;;;;;5100896;27;96280;-76
2022/01/21 05:59:32;;;;;;;13.77;1.92;;;;;;;;;;5094256;27;96819;-76
2022/01/21 06:01:58;;;;;;;12.25;2.05;;;;;;;;;;5116596;27;97352;-76
2022/01/21 06:04:25;;;;;;;12.45;2.33;;;;;;;;;;5114232;27;96804;-77
2022/01/21 06:06:51;;;;;;;12.23;1.70;;;;;;;;;;5116979;27;97463;-76
2022/01/21 06:09:18;;;;;;;10.95;2.00;;;;;;;;;;5116016;27;95298;-75
2022/01/21 06:11:48;;;;;;;14.75;2.67;;;;;;;;;;5116774;27;96996;-76
2022/01/21 06:14:14;;;;;;;16.05;2.55;;;;;;;;;;5116324;27;97321;-76
2022/01/21 06:16:41;;;;;;;13.77;2.42;;;;;;;;;;5116597;27;95376;-76
2022/01/21 06:19:07;;;;;;;13.02;2.22;;;;;;;;;;5116077;27;97071;-75
2022/01/21 06:21:34;;;;;;;8.65;2.10;;;;;;;;;;5115963;27;97356;-76
2022/01/21 06:24:00;;;;;;;18.45;3.47;;;;;;;;;;5119834;27;95192;-77
2022/01/21 06:26:27;;;;;;;12.13;2.00;;;;;;;;;;5115589;27;97315;-77
2022/01/21 06:28:53;;;;;;;13.10;2.53;;;;;;;;;;5116787;27;96093;-77
2022/01/21 06:31:19;;;;;;;11.57;2.45;;;;;;;;;;5115992;27;97051;-74
2022/01/21 06:33:46;;;;;;;17.23;2.25;;;;;;;;;;5113762;27;97257;-74
2022/01/21 06:36:12;;;;;;;17.98;2.92;;;;;;;;;;5115839;27;95161;-73
2022/01/21 06:38:39;;;;;;;15.55;2.47;;;;;;;;;;5115079;27;96828;-74
2022/01/21 06:41:06;;;;;;;13.13;2.47;;;;;;;;;;5115302;27;97424;-74
2022/01/21 06:43:32;;;;;;;16.27;2.53;;;;;;;;;;5115338;27;95329;-75
2022/01/21 06:45:58;;;;;;;13.88;2.50;;;;;;;;;;5100232;27;96854;-73
2022/01/21 06:48:25;;;;;;;12.30;2.20;;;;;;;;;;5115095;27;95299;-75
2022/01/21 06:50:51;;;;;;;13.25;2.85;;;;;;;;;;5116060;27;97956;-75
2022/01/21 06:53:18;;;;;;;12.68;2.22;;;;;;;;;;5112597;27;97327;-73
2022/01/21 06:55:44;;;;;;;12.48;2.22;;;;;;;;;;5114997;27;95693;-74
2022/01/21 06:58:10;;;;;;;12.70;2.22;;;;;;;;;;5095220;27;96762;-75
2022/01/21 07:00:37;;;;;;;11.25;2.55;;;;;;;;;;5114414;27;97293;-76
2022/01/21 07:03:03;;;;;;;13.15;2.92;;;;;;;;;;5114451;27;95349;-77
2022/01/21 07:05:30;;;;;;;12.93;2.88;;;;;;;;;;5095034;27;97092;-76
2022/01/21 07:08:00;;;;;;;16.00;2.90;;;;;;;;;;5117225;27;97361;-75
2022/01/21 07:10:29;;;;;;;14.27;2.95;;;;;;;;;;5114845;27;96796;-77
2022/01/21 07:13:01;;;;;;;14.00;3.05;;;;;;;;;;5114851;27;97689;-75
2022/01/21 07:15:28;;;;;;;15.45;2.90;;;;;;;;;;5114510;27;95691;-77
2022/01/21 07:17:55;;;;;;;14.70;3.10;;;;;;;;;;5113941;27;96744;-75
2022/01/21 07:20:22;;;;;;;12.05;3.05;;;;;;;;;;5114364;27;97463;-76
2022/01/21 07:22:48;;;;;;;11.48;3.13;;;;;;;;;;5112660;27;96992;-77
2022/01/21 07:25:15;;;;;;;14.63;3.67;;;;;;;;;;5106109;27;96828;-75
2022/01/21 07:27:42;;;;;;;11.13;3.05;;;;;;;;;;5114818;27;97177;-75
2022/01/21 07:30:09;;;;;;;17.40;3.53;;;;;;;;;;5117857;27;95278;-76
2022/01/21 16:02:50;;;;;;;21.30;4.00;;;;;;;;;;5026514;27;95547;-77
2022/01/21 16:05:17;;;;;;;24.48;4.65;;;;;;;;;;5024149;28;97188;-76
2022/01/21 16:07:43;;;;;;;19.83;3.42;;;;;;;;;;5007176;28;95859;-76
2022/01/21 16:10:09;;;;;;;16.95;2.55;;;;;;;;;;5015821;28;96718;-73
2022/01/21 16:12:36;;;;;;;23.42;3.05;;;;;;;;;;5006812;28;97704;-74
2022/01/21 16:15:02;;;;;;;24.02;4.03;;;;;;;;;;5024109;28;95459;-74
2022/01/21 16:17:28;;;;;;;19.40;3.55;;;;;;;;;;5008386;28;96722;-74
2022/01/21 16:19:55;;;;;;;17.85;3.05;;;;;;;;;;5012448;28;97185;-73
2022/01/21 16:22:22;;;;;;;20.23;3.90;;;;;;;;;;5026328;28;95363;-73
2022/01/21 16:24:48;;;;;;;42.20;15.98;;;;;;;;;;5005890;28;97680;-72
2022/01/21 16:27:15;;;;;;;12.32;3.53;;;;;;;;;;5007888;28;95330;-72
2022/01/21 16:29:41;;;;;;;27.98;5.15;;;;;;;;;;5008725;28;97099;-73
2022/01/21 16:32:07;;;;;;;27.92;10.43;;;;;;;;;;5007609;28;97294;-72
2022/01/21 16:34:35;;;;;;;23.92;6.72;;;;;;;;;;5007691;28;95235;-72
2022/01/21 16:37:05;;;;;;;26.67;6.03;;;;;;;;;;5008790;28;96655;-72
2022/01/21 16:39:32;;;;;;;21.00;7.20;;;;;;;;;;5013965;28;97733;-72
2022/01/21 16:42:00;;;;;;;28.13;7.80;;;;;;;;;;5007997;28;95418;-72
2022/01/21 16:44:27;;;;;;;17.27;3.20;;;;;;;;;;5010271;28;96767;-74
2022/01/21 16:46:54;;;;;;;18.30;3.95;;;;;;;;;;5008804;28;95400;-73
2022/01/21 16:49:20;;;;;;;19.17;2.97;;;;;;;;;;5008347;28;96650;-77
2022/01/21 16:51:46;;;;;;;17.98;6.47;;;;;;;;;;5022887;28;97573;-77
2022/01/21 16:54:13;;;;;;;19.48;5.45;;;;;;;;;;5007094;28;95871;-73
2022/01/21 16:56:44;;;;;;;16.15;3.67;;;;;;;;;;5020645;28;96870;-78
2022/01/21 16:59:11;;;;;;;16.80;4.53;;;;;;;;;;5007641;27;96812;-77
2022/01/21 17:01:37;;;;;;;25.55;3.47;;;;;;;;;;5007607;28;95299;-77
2022/01/21 17:04:04;;;;;;;26.67;3.67;;;;;;;;;;5008184;28;96835;-77
2022/01/21 17:06:31;;;;;;;15.93;3.25;;;;;;;;;;5010218;28;97657;-74
2022/01/21 17:08:57;;;;;;;20.92;3.53;;;;;;;;;;5008469;28;96712;-76
2022/01/21 17:11:24;;;;;;;24.05;3.90;;;;;;;;;;5018641;28;97429;-76
2022/01/21 17:13:51;;;;;;;18.85;4.25;;;;;;;;;;5016280;28;95428;-78
2022/01/21 17:16:17;;;;;;;16.73;3.30;;;;;;;;;;5006049;28;96784;-77
2022/01/21 17:18:44;;;;;;;19.40;3.60;;;;;;;;;;4994509;28;97266;-78
2022/01/21 17:21:10;;;;;;;19.75;3.20;;;;;;;;;;4993939;28;95346;-78
2022/01/21 17:23:37;;;;;;;21.58;3.58;;;;;;;;;;4994609;28;96700;-78
2022/01/21 17:26:03;;;;;;;18.30;3.58;;;;;;;;;;5002345;28;96630;-78
2022/01/21 17:28:29;;;;;;;21.95;3.10;;;;;;;;;;5017193;28;95205;-77
2022/01/21 17:30:56;;;;;;;14.40;2.78;;;;;;;;;;5002762;28;97327;-78
2022/01/21 17:33:22;;;;;;;19.92;4.95;;;;;;;;;;4993870;28;95178;-78
2022/01/21 17:35:51;;;;;;;22.05;3.70;;;;;;;;;;4994873;28;96753;-77
2022/01/21 17:38:17;;;;;;;19.70;3.05;;;;;;;;;;4994206;28;97870;-78
2022/01/21 17:40:45;;;;;;;15.75;3.05;;;;;;;;;;5000707;28;95594;-77
2022/01/21 17:43:11;;;;;;;28.00;4.50;;;;;;;;;;5002227;28;96850;-78
2022/01/21 17:45:38;;;;;;;21.50;3.47;;;;;;;;;;4993807;28;97367;-77
2022/01/21 17:48:04;;;;;;;21.35;3.60;;;;;;;;;;4993786;28;95322;-77
2022/01/21 17:50:31;;;;;;;21.65;3.75;;;;;;;;;;4996984;28;96812;-77
2022/01/21 17:52:59;;;;;;;21.92;4.03;;;;;;;;;;4994520;28;95361;-77
2022/01/21 17:55:25;;;;;;;42.08;12.70;;;;;;;;;;5000103;28;96953;-78
2022/01/21 17:57:53;;;;;;;11.50;2.92;;;;;;;;;;4994748;28;97497;-78
2022/01/21 18:00:20;;;;;;;20.90;3.35;;;;;;;;;;4994086;28;95210;-76
2022/01/21 18:02:46;;;;;;;25.95;12.05;;;;;;;;;;4993649;28;99869;-77
2022/01/21 18:05:13;;;;;;;26.23;3.67;;;;;;;;;;5008154;28;96372;-78
2022/01/21 18:07:39;;;;;;;27.48;3.72;;;;;;;;;;4996678;28;95215;-75
2022/01/21 18:10:27;;;;;;;16.95;2.85;;;;;;;;;;4992788;28;98465;-78
2022/01/21 18:12:53;;;;;;;16.48;2.80;;;;;;;;;;4996097;28;95224;-78
2022/01/21 18:15:19;;;;;;;19.83;4.55;;;;;;;;;;4992799;28;96819;-77
2022/01/21 18:17:47;;;;;;;22.85;3.55;;;;;;;;;;4992520;28;97488;-78
2022/01/21 18:20:15;;;;;;;17.67;3.13;;;;;;;;;;4992996;28;96488;-77
2022/01/21 18:22:41;;;;;;;20.33;3.85;;;;;;;;;;4992793;28;96754;-78
2022/01/21 18:25:08;;;;;;;27.63;5.18;;;;;;;;;;4991817;28;96276;-74
2022/01/21 18:27:34;;;;;;;14.55;3.22;;;;;;;;;;4993569;28;95398;-76
2022/01/21 18:40:01;;;;;;;15.60;3.45;;;;;;;;;;5028294;27;95581;-72
2022/01/21 18:42:32;;;;;;;18.35;3.78;;;;;;;;;;5034741;27;98374;-72
2022/01/21 18:47:52;;;;;;;17.05;3.40;;;;;;;;;;5028250;27;96633;-73
2022/01/21 18:50:38;;;;;;;15.52;3.50;;;;;;;;;;5024169;27;97875;-72
2022/01/21 18:53:04;;;;;;;12.48;2.58;;;;;;;;;;5042045;27;95829;-72
2022/01/21 18:55:30;;;;;;;21.00;3.47;;;;;;;;;;5031475;27;96739;-73
2022/01/21 18:58:01;;;;;;;19.23;3.78;;;;;;;;;;5016030;27;96044;-72
2022/01/21 19:00:27;;;;;;;15.90;3.50;;;;;;;;;;5038543;27;95291;-72
2022/01/21 19:02:57;;;;;;;20.67;4.97;;;;;;;;;;5032022;27;97443;-72
2022/01/21 19:05:26;;;;;;;36.72;13.77;;;;;;;;;;5032595;27;95457;-73
2022/01/21 19:07:54;;;;;;;16.63;3.45;;;;;;;;;;5023555;27;96739;-74
2022/01/21 19:10:26;;;;;;;23.83;4.57;;;;;;;;;;5027374;27;97213;-73
2022/01/21 19:12:52;;;;;;;21.52;4.45;;;;;;;;;;5038078;27;95231;-74
2022/01/21 19:15:19;;;;;;;25.55;4.07;;;;;;;;;;5048606;27;96500;-74
2022/01/21 19:17:45;;;;;;;23.77;5.60;;;;;;;;;;5046452;27;97275;-73
2022/01/21 19:20:14;;;;;;;22.58;5.28;;;;;;;;;;5034488;27;95575;-73
2022/01/21 19:22:47;;;;;;;18.90;5.13;;;;;;;;;;5014741;27;96715;-75
2022/01/21 19:25:39;;;;;;;22.55;4.45;;;;;;;;;;5020882;27;95106;-73
2022/01/21 19:28:08;;;;;;;17.13;3.63;;;;;;;;;;5028807;28;97429;-73
2022/01/21 19:30:34;;;;;;;22.05;4.20;;;;;;;;;;5029107;28;97644;-74
2022/01/21 19:33:01;;;;;;;23.38;4.15;;;;;;;;;;5017072;28;95514;-73
2022/01/21 19:35:27;;;;;;;23.60;3.78;;;;;;;;;;5028079;27;96741;-73
2022/01/21 19:37:53;;;;;;;16.27;4.25;;;;;;;;;;5010699;28;97326;-74
2022/01/21 19:40:22;;;;;;;16.27;3.40;;;;;;;;;;5008634;28;95191;-74
2022/01/21 19:42:59;;;;;;;17.50;3.95;;;;;;;;;;5008890;28;96150;-73
2022/01/21 19:45:30;;;;;;;23.67;3.97;;;;;;;;;;5020998;27;97483;-74
2022/01/21 19:48:04;;;;;;;21.20;3.47;;;;;;;;;;5028791;27;96289;-75
2022/01/21 19:50:36;;;;;;;23.10;4.15;;;;;;;;;;5019613;28;97224;-74
2022/01/21 19:53:20;;;;;;;18.90;4.43;;;;;;;;;;5003142;28;95339;-73
2022/01/21 19:55:58;;;;;;;16.92;5.05;;;;;;;;;;5012699;28;96673;-75
2022/01/21 19:58:27;;;;;;;26.33;5.60;;;;;;;;;;4996871;28;97174;-74
2022/01/21 20:09:08;;;;;;;19.35;3.28;;;;;;;;;;5017405;28;95434;-74
2022/01/21 20:12:02;;;;;;;19.80;3.40;;;;;;;;;;5015081;28;96691;-73
2022/01/21 20:14:39;;;;;;;29.55;4.82;;;;;;;;;;5013581;28;95283;-74
2022/01/21 20:17:14;;;;;;;22.63;4.40;;;;;;;;;;5011450;28;95665;-74
2022/01/21 20:19:43;;;;;;;21.73;2.72;;;;;;;;;;5016793;28;97794;-74
2022/01/21 20:22:13;;;;;;;26.50;6.15;;;;;;;;;;4994622;28;95378;-74
2022/01/21 20:24:45;;;;;;;20.15;4.30;;;;;;;;;;5001672;28;95882;-73
2022/01/21 20:27:21;;;;;;;22.98;4.18;;;;;;;;;;5009493;28;96375;-74
2022/01/21 20:30:07;;;;;;;25.03;3.63;;;;;;;;;;4995855;28;95413;-75
2022/01/21 20:32:38;;;;;;;17.17;3.80;;;;;;;;;;5014267;28;97127;-74
2022/01/21 20:35:07;;;;;;;23.27;3.47;;;;;;;;;;5014673;28;95046;-73
2022/01/21 20:37:41;;;;;;;24.55;3.67;;;;;;;;;;5013221;28;95751;-74
2022/01/21 20:43:00;;;;;;;28.42;3.20;;;;;;;;;;5010350;28;95269;-73
2022/01/21 20:45:28;;;;;;;16.20;3.45;;;;;;;;;;5012572;28;95366;-73
2022/01/21 20:47:57;;;;;;;19.15;3.88;;;;;;;;;;4992982;28;96258;-73
2022/01/21 20:50:27;;;;;;;21.83;3.75;;;;;;;;;;5002241;28;95159;-73
2022/01/21 20:53:03;;;;;;;23.40;4.55;;;;;;;;;;5012138;28;96076;-73
2022/01/21 20:55:31;;;;;;;20.58;4.25;;;;;;;;;;5017485;28;95283;-74
2022/01/21 20:57:59;;;;;;;21.83;3.80;;;;;;;;;;5014785;28;96718;-73
2022/01/21 21:00:29;;;;;;;23.25;4.03;;;;;;;;;;5030779;28;96083;-73
2022/01/21 21:03:04;;;;;;;57.80;17.00;;;;;;;;;;5009154;28;95062;-74
2022/01/21 21:05:32;;;;;;;16.80;3.63;;;;;;;;;;4980325;28;96870;-74
2022/01/21 21:08:02;;;;;;;19.30;3.63;;;;;;;;;;4974496;28;96617;-74
2022/01/21 21:10:32;;;;;;;24.08;6.00;;;;;;;;;;4993555;28;95404;-73
2022/01/21 21:13:04;;;;;;;18.08;3.60;;;;;;;;;;4993222;28;95676;-73
2022/01/21 21:15:35;;;;;;;25.95;4.03;;;;;;;;;;4987919;28;97313;-73
2022/01/21 21:18:27;;;;;;;22.00;4.25;;;;;;;;;;4974213;28;95531;-74
2022/01/21 21:26:34;;;;;;;17.35;4.32;;;;;;;;;;4992566;28;96762;-73
2022/01/21 21:29:17;;;;;;;15.82;3.90;;;;;;;;;;4993770;28;97438;-73
2022/01/21 22:18:42;;;;;;;15.32;3.60;;;;;;;;;;5006424;28;96582;-74
2022/01/21 22:24:39;;;;;;;15.82;3.35;;;;;;;;;;5010106;28;95218;-74
2022/01/21 23:00:58;;;;;;;17.42;2.67;;;;;;;;;;4992483;28;96714;-74
2022/01/21 23:03:25;;;;;;;10.68;2.83;;;;;;;;;;4990370;28;97370;-74
2022/01/21 23:05:52;;;;;;;18.77;2.83;;;;;;;;;;4991819;28;95345;-73
2022/01/21 23:08:27;;;;;;;19.33;3.22;;;;;;;;;;4998708;28;96811;-75
2022/01/21 23:10:55;;;;;;;13.68;2.92;;;;;;;;;;5006634;28;97441;-74
2022/01/21 23:13:22;;;;;;;21.70;3.03;;;;;;;;;;5003870;28;95242;-74
2022/01/21 23:15:49;;;;;;;12.07;2.50;;;;;;;;;;4992302;28;97297;-73
2022/01/21 23:18:16;;;;;;;13.70;2.58;;;;;;;;;;4992016;28;95328;-74
2022/01/21 23:20:44;;;;;;;21.00;2.47;;;;;;;;;;4992166;28;95746;-74
2022/01/21 23:23:13;;;;;;;12.57;2.58;;;;;;;;;;4983607;28;97287;-72
2022/01/21 23:26:02;;;;;;;14.77;2.50;;;;;;;;;;4988054;28;95307;-72
2022/01/21 23:28:44;;;;;;;16.92;3.20;;;;;;;;;;5003812;28;96816;-72
2022/01/21 23:31:11;;;;;;;15.63;3.03;;;;;;;;;;5014722;28;97268;-72
2022/01/21 23:33:37;;;;;;;13.60;2.50;;;;;;;;;;4998804;28;95232;-72
2022/01/21 23:36:04;;;;;;;13.05;3.22;;;;;;;;;;4996695;28;96817;-73
2022/01/21 23:41:08;;;;;;;17.15;4.13;;;;;;;;;;5014676;28;96709;-74
2022/01/21 23:43:35;;;;;;;16.42;3.10;;;;;;;;;;5002029;28;97349;-73
2022/01/21 23:46:02;;;;;;;11.98;2.60;;;;;;;;;;4994998;28;95427;-73
2022/01/21 23:48:29;;;;;;;22.70;2.45;;;;;;;;;;4991921;28;96697;-72
2022/01/21 23:51:00;;;;;;;15.43;2.05;;;;;;;;;;5003148;28;97272;-72
2022/01/21 23:53:31;;;;;;;14.43;3.13;;;;;;;;;;4994591;28;95173;-73
2022/01/21 23:55:58;;;;;;;15.35;2.35;;;;;;;;;;4995106;28;97351;-74
2022/01/21 23:58:24;;;;;;;15.98;2.83;;;;;;;;;;4992429;28;96995;-73
